Time;durP1;ratioP1;P1;durP2;ratioP2;P2;SDS_P1;SDS_P2;PMS_P1;PMS_P2;Temp;Humidity;BMP_temperature;BMP_pressure;BME280_temperature;BME280_humidity;BME280_pressure;Samples;Min_cycle;Max_cycle;Signal;HPM_P1;HPM_P2
2022/06/25 00:01:49;;;;;;;6.32;3.65;;;;;;;25.64;32.27;99294.94;4439639;32;33666;-78
2022/06/25 00:07:11;;;;;;;5.43;2.67;;;;;;;25.66;31.27;99291.81;4454820;32;34568;-78
2022/06/25 00:09:38;;;;;;;6.37;2.60;;;;;;;25.60;31.15;99282.63;4430707;32;32417;-78
2022/06/25 00:14:55;;;;;;;7.97;2.00;;;;;;;25.69;31.11;99266.72;4429924;32;34612;-79
2022/06/25 00:17:25;;;;;;;7.07;2.10;;;;;;;25.75;30.95;99275.84;4441679;32;34146;-79
2022/06/25 00:19:53;;;;;;;7.57;2.60;;;;;;;25.80;31.07;99272.91;4432607;32;33717;-78
2022/06/25 00:22:20;;;;;;;8.63;2.50;;;;;;;25.73;31.17;99278.16;4427868;32;34083;-78
2022/06/25 00:24:48;;;;;;;7.57;2.20;;;;;;;25.87;30.59;99276.94;4428107;32;34689;-78
2022/06/25 00:27:16;;;;;;;6.37;2.10;;;;;;;25.83;30.48;99278.72;4427966;32;34415;-78
2022/06/25 00:29:45;;;;;;;3.97;2.20;;;;;;;25.87;30.18;99267.66;4437823;32;34013;-79
2022/06/25 00:32:12;;;;;;;6.12;2.20;;;;;;;25.84;30.30;99271.13;4423356;32;32694;-78
2022/06/25 00:34:41;;;;;;;6.62;2.40;;;;;;;25.79;30.46;99262.81;4421971;32;34393;-78
2022/06/25 00:37:09;;;;;;;9.55;2.60;;;;;;;25.82;30.02;99257.38;4433860;32;34664;-79
2022/06/25 00:39:37;;;;;;;4.70;1.52;;;;;;;25.83;29.98;99273.09;4429380;32;31877;-79
2022/06/25 00:42:09;;;;;;;5.97;1.98;;;;;;;25.81;30.32;99266.12;4438606;32;33907;-78
2022/06/25 00:44:38;;;;;;;3.17;1.52;;;;;;;25.84;30.50;99265.50;4414766;32;33671;-78
2022/06/25 00:47:12;;;;;;;5.55;2.10;;;;;;;25.73;30.71;99256.50;4427562;32;33869;-79
2022/06/25 00:49:41;;;;;;;9.88;2.35;;;;;;;25.73;31.04;99264.09;4427656;32;33192;-79
2022/06/25 00:52:13;;;;;;;8.63;2.10;;;;;;;25.78;31.09;99270.41;4427611;32;34430;-79
2022/06/25 00:54:53;;;;;;;4.95;2.00;;;;;;;25.74;31.40;99269.41;4427764;32;34738;-78
2022/06/25 00:57:26;;;;;;;4.68;1.80;;;;;;;25.84;31.42;99273.94;4439847;32;33670;-77
2022/06/25 00:59:59;;;;;;;3.25;1.60;;;;;;;25.82;31.48;99264.97;4428380;32;34286;-78
2022/06/25 01:02:27;;;;;;;5.65;1.70;;;;;;;25.85;31.54;99270.81;4426064;32;34466;-79
2022/06/25 01:04:54;;;;;;;4.10;1.77;;;;;;;25.84;31.31;99273.94;4427513;32;35549;-78
2022/06/25 01:07:22;;;;;;;4.82;1.90;;;;;;;25.80;31.40;99270.09;4414516;32;32642;-78
2022/06/25 01:09:51;;;;;;;4.32;1.40;;;;;;;25.83;31.48;99284.34;4427318;32;34439;-79
2022/06/25 01:12:19;;;;;;;5.35;1.52;;;;;;;25.72;31.70;99280.12;4427196;32;33627;-79
2022/06/25 01:15:09;;;;;;;5.50;1.70;;;;;;;25.76;31.62;99272.72;4414300;32;34682;-78
2022/06/25 01:17:44;;;;;;;6.95;1.87;;;;;;;25.68;31.73;99278.28;4427614;32;34853;-79
2022/06/25 01:20:13;;;;;;;5.82;1.75;;;;;;;25.73;31.52;99281.78;4414533;32;32736;-78
2022/06/25 01:22:44;;;;;;;6.07;2.03;;;;;;;25.62;32.01;99285.97;4440089;32;33735;-79
2022/06/25 01:25:13;;;;;;;7.12;1.90;;;;;;;25.72;31.86;99298.97;4427478;32;34290;-79
2022/06/25 01:27:41;;;;;;;6.45;2.03;;;;;;;25.60;32.42;99285.44;4416213;32;33224;-79
2022/06/25 01:30:11;;;;;;;5.07;1.75;;;;;;;25.67;33.94;99273.78;4416513;32;32666;-79
2022/06/25 01:32:39;;;;;;;7.82;2.00;;;;;;;25.43;37.13;99272.06;4429011;32;34613;-79
2022/06/25 01:35:10;;;;;;;10.63;2.12;;;;;;;25.43;38.02;99269.25;4429215;32;33860;-79
2022/06/25 01:37:38;;;;;;;5.00;2.05;;;;;;;25.16;39.05;99269.37;4441888;32;33692;-79
2022/06/25 01:40:06;;;;;;;5.50;2.17;;;;;;;25.11;39.99;99272.28;4416050;32;32178;-79
2022/06/25 01:45:21;;;;;;;5.80;2.30;;;;;;;24.73;43.03;99268.84;4430645;32;33927;-79
2022/06/25 01:47:49;;;;;;;8.35;2.20;;;;;;;24.57;44.37;99265.56;4429785;32;32615;-80
2022/06/25 01:50:17;;;;;;;6.45;2.30;;;;;;;24.39;46.08;99269.28;4429882;32;33360;-80
2022/06/25 01:52:47;;;;;;;5.25;2.33;;;;;;;24.15;47.42;99272.22;4429451;32;33934;-80
2022/06/25 01:55:15;;;;;;;5.85;2.28;;;;;;;24.22;47.41;99278.25;4417058;32;32804;-80
2022/06/25 01:57:43;;;;;;;9.38;4.40;;;;;;;23.96;46.75;99266.69;4429795;32;33634;-80
2022/06/25 02:00:20;;;;;;;8.73;3.70;;;;;;;24.25;45.85;99283.25;4428821;32;33525;-81
2022/06/25 02:02:52;;;;;;;5.87;2.90;;;;;;;23.95;46.37;99271.47;4429684;32;34576;-80
2022/06/25 02:05:56;;;;;;;5.93;2.50;;;;;;;23.71;47.78;99264.34;4429666;32;35089;-80
2022/06/25 02:08:16;;;;;;;8.25;2.30;;;;;;;23.59;48.59;99271.25;4445532;32;34342;-80
2022/06/25 02:10:46;;;;;;;5.90;2.53;;;;;;;23.57;48.99;99281.91;4444470;32;33303;-78
2022/06/25 02:13:17;;;;;;;8.18;2.75;;;;;;;23.62;50.03;99276.22;4431147;32;34256;-80
2022/06/25 02:15:45;;;;;;;4.85;2.05;;;;;;;23.44;50.61;99279.00;4430495;32;34827;-80
2022/06/25 02:18:13;;;;;;;8.45;2.47;;;;;;;23.53;50.43;99280.84;4430268;32;33427;-79
2022/06/25 02:20:42;;;;;;;6.28;2.65;;;;;;;23.59;50.14;99284.41;4417038;32;31864;-80
2022/06/25 02:23:11;;;;;;;6.10;1.90;;;;;;;23.57;50.34;99286.69;4430511;32;33924;-79
2022/06/25 02:25:39;;;;;;;4.55;2.03;;;;;;;23.45;50.68;99277.87;4417031;32;32530;-79
2022/06/25 02:28:15;;;;;;;4.93;2.15;;;;;;;23.42;50.78;99278.47;4430672;32;34116;-79
2022/06/25 02:30:43;;;;;;;6.87;2.47;;;;;;;23.39;50.85;99279.94;4429826;32;33685;-79
2022/06/25 02:33:13;;;;;;;5.25;2.53;;;;;;;23.29;50.85;99278.13;4430023;32;33860;-79
2022/06/25 02:35:42;;;;;;;3.92;1.95;;;;;;;23.59;49.80;99276.00;4430305;32;35125;-79
2022/06/25 02:38:11;;;;;;;7.60;2.50;;;;;;;23.30;48.96;99274.19;4441602;32;34136;-79
2022/06/25 02:40:39;;;;;;;5.87;2.12;;;;;;;23.35;48.67;99275.25;4419590;32;32139;-79
2022/06/25 02:43:08;;;;;;;6.53;2.30;;;;;;;22.98;47.15;99282.50;4445865;32;33278;-80
2022/06/25 02:45:38;;;;;;;3.92;2.00;;;;;;;23.07;47.91;99280.69;4432997;32;33021;-80
2022/06/25 02:48:06;;;;;;;6.07;2.53;;;;;;;23.03;48.29;99282.44;4431636;32;33273;-80
2022/06/25 02:50:34;;;;;;;6.10;2.10;;;;;;;23.03;48.43;99284.37;4431166;32;32290;-81
2022/06/25 02:53:04;;;;;;;4.05;2.22;;;;;;;23.09;48.17;99286.81;4431728;32;33093;-80
2022/06/25 03:01:09;;;;;;;5.00;2.20;;;;;;;23.09;48.58;99288.78;4447402;32;32969;-80
2022/06/25 03:03:37;;;;;;;7.53;2.53;;;;;;;22.99;48.95;99284.16;4444647;32;33713;-80
2022/06/25 03:06:06;;;;;;;4.78;2.40;;;;;;;22.99;49.18;99285.00;4431711;32;32921;-80
2022/06/25 03:08:36;;;;;;;6.72;2.12;;;;;;;23.10;48.71;99296.88;4444773;32;34191;-81
2022/06/25 03:11:03;;;;;;;5.47;2.35;;;;;;;23.18;48.77;99295.38;4444339;32;34212;-80
2022/06/25 03:13:34;;;;;;;4.95;2.22;;;;;;;23.05;49.40;99293.31;4444198;32;34319;-80
2022/06/25 03:16:06;;;;;;;8.13;2.40;;;;;;;22.99;49.38;99285.00;4457171;32;33972;-80
2022/06/25 03:18:35;;;;;;;7.40;2.35;;;;;;;22.90;49.67;99292.37;4444264;32;34775;-80
2022/06/25 03:21:04;;;;;;;7.50;2.25;;;;;;;23.01;49.14;99293.09;4457405;32;33450;-80
2022/06/25 03:23:33;;;;;;;5.87;2.33;;;;;;;22.92;49.15;99294.88;4444156;32;33069;-80
2022/06/25 03:26:01;;;;;;;4.85;2.30;;;;;;;22.78;49.74;99294.75;4431575;32;33052;-80
2022/06/25 03:28:29;;;;;;;6.15;2.25;;;;;;;22.92;49.20;99281.72;4444396;32;33878;-80
2022/06/25 03:30:58;;;;;;;5.32;2.45;;;;;;;22.95;49.20;99291.50;4436700;32;31880;-80
2022/06/25 03:33:26;;;;;;;6.72;2.62;;;;;;;23.02;48.59;99282.72;4415741;32;32159;-80
2022/06/25 03:35:57;;;;;;;9.35;2.65;;;;;;;22.71;48.99;99280.31;4416208;32;33130;-80
2022/06/25 03:38:26;;;;;;;4.87;2.17;;;;;;;22.75;49.32;99280.56;4415925;32;33434;-80
2022/06/25 03:41:32;;;;;;;5.22;2.28;;;;;;;22.64;49.69;99283.47;4431894;32;32368;-80
2022/06/25 03:43:44;;;;;;;5.30;2.53;;;;;;;22.70;49.74;99286.22;4459131;32;33660;-80
2022/06/25 03:46:12;;;;;;;6.35;2.40;;;;;;;22.79;49.41;99295.59;4444049;32;34643;-80
2022/06/25 03:48:42;;;;;;;6.53;2.10;;;;;;;23.12;47.46;99291.81;4442915;32;32445;-82
2022/06/25 03:51:13;;;;;;;6.20;2.30;;;;;;;23.20;44.46;99299.53;4444712;32;34025;-81
2022/06/25 03:53:43;;;;;;;4.12;1.95;;;;;;;23.12;45.12;99299.37;4443515;32;33149;-82
2022/06/25 03:56:12;;;;;;;5.43;2.37;;;;;;;23.13;45.94;99304.69;4443388;32;34067;-78
2022/06/25 03:58:39;;;;;;;3.83;2.05;;;;;;;23.18;46.80;99303.78;4456476;32;34449;-81
2022/06/25 04:01:07;;;;;;;6.70;2.25;;;;;;;23.14;47.95;99309.16;4443442;32;33459;-81
2022/06/25 04:03:36;;;;;;;6.37;2.12;;;;;;;23.30;48.01;99312.56;4443428;32;32309;-81
2022/06/25 04:06:06;;;;;;;4.70;2.45;;;;;;;23.35;48.26;99315.31;4456467;32;34594;-80
2022/06/25 04:08:35;;;;;;;5.97;2.22;;;;;;;23.37;47.72;99306.59;4430899;32;33442;-81
2022/06/25 04:11:08;;;;;;;5.68;2.10;;;;;;;23.35;46.25;99311.66;4470523;32;33032;-81
2022/06/25 04:13:37;;;;;;;10.82;2.50;;;;;;;23.29;47.86;99314.53;4443502;32;32960;-82
2022/06/25 04:16:08;;;;;;;5.53;1.95;;;;;;;23.39;47.92;99318.34;4443181;32;32944;-81
2022/06/25 04:18:37;;;;;;;4.80;2.10;;;;;;;23.32;48.67;99322.34;4443189;32;34236;-81
2022/06/25 04:21:07;;;;;;;5.60;2.50;;;;;;;23.42;49.11;99320.50;4444008;32;33370;-81
2022/06/25 04:23:34;;;;;;;6.95;2.30;;;;;;;23.40;50.15;99320.78;4443529;32;33752;-82
2022/06/25 04:26:04;;;;;;;6.18;2.30;;;;;;;23.47;49.79;99323.22;4443357;32;35162;-81
2022/06/25 04:31:19;;;;;;;3.83;2.03;;;;;;;23.59;48.87;99323.63;4446041;32;32781;-81
2022/06/25 04:33:48;;;;;;;4.55;2.03;;;;;;;23.63;47.56;99321.88;4446618;32;34535;-82
2022/06/25 04:36:16;;;;;;;8.27;2.10;;;;;;;23.66;46.16;99326.88;4446329;32;34693;-82
2022/06/25 04:38:43;;;;;;;8.25;2.10;;;;;;;23.65;45.28;99325.22;4434091;32;33966;-82
2022/06/25 04:41:12;;;;;;;5.12;2.35;;;;;;;23.80;44.91;99327.78;4440339;32;33724;-81
2022/06/25 04:43:42;;;;;;;5.07;2.22;;;;;;;23.83;45.11;99332.78;4438323;32;31895;-82
2022/06/25 04:46:13;;;;;;;4.00;1.95;;;;;;;23.86;45.03;99337.78;4451021;32;35414;-81
2022/06/25 04:48:42;;;;;;;5.00;2.10;;;;;;;23.90;44.88;99338.84;4450044;32;34219;-80
2022/06/25 04:51:11;;;;;;;5.95;2.03;;;;;;;24.00;44.63;99349.06;4447979;32;33443;-82
2022/06/25 04:53:57;;;;;;;5.18;1.75;;;;;;;24.05;44.45;99348.13;4445696;32;34450;-82
2022/06/25 04:56:28;;;;;;;6.28;2.08;;;;;;;24.10;43.38;99346.03;4434157;32;32522;-81
2022/06/25 04:58:59;;;;;;;4.20;2.20;;;;;;;24.22;43.27;99351.19;4431416;32;32886;-81
2022/06/25 05:01:28;;;;;;;5.15;2.42;;;;;;;24.36;43.53;99345.63;4443638;32;33423;-81
2022/06/25 05:03:56;;;;;;;5.93;2.33;;;;;;;24.43;43.79;99352.50;4443255;32;33969;-83
2022/06/25 05:06:24;;;;;;;6.15;3.03;;;;;;;24.48;43.95;99344.00;4443100;32;35162;-82
2022/06/25 05:08:53;;;;;;;6.75;2.47;;;;;;;24.43;44.79;99344.09;4442862;32;34210;-82
2022/06/25 05:11:20;;;;;;;6.75;2.40;;;;;;;24.57;43.97;99344.97;4442797;32;33245;-80
2022/06/25 05:13:49;;;;;;;6.10;2.85;;;;;;;24.66;43.14;99339.47;4442192;32;33468;-81
2022/06/25 05:16:17;;;;;;;4.30;2.22;;;;;;;24.67;42.30;99345.91;4455791;32;35172;-82
2022/06/25 05:18:46;;;;;;;6.55;2.22;;;;;;;24.70;42.11;99346.09;4442134;32;32424;-82
2022/06/25 05:21:14;;;;;;;4.70;2.30;;;;;;;24.77;42.37;99354.94;4442432;32;33552;-77
2022/06/25 05:23:47;;;;;;;5.32;2.28;;;;;;;24.84;41.33;99346.09;4441255;32;33453;-78
2022/06/25 05:26:18;;;;;;;5.05;2.45;;;;;;;25.09;41.25;99359.66;4469247;32;35231;-78
2022/06/25 05:28:46;;;;;;;7.62;2.45;;;;;;;25.16;41.43;99364.84;4438676;32;34186;-78
2022/06/25 05:31:14;;;;;;;5.53;2.20;;;;;;;25.07;41.68;99372.34;4455433;32;33140;-82
2022/06/25 05:33:56;;;;;;;5.43;2.20;;;;;;;25.24;41.44;99362.16;4442590;32;33658;-82
2022/06/25 05:36:48;;;;;;;6.57;2.40;;;;;;;25.19;41.53;99364.22;4456566;32;34678;-82
2022/06/25 05:39:44;;;;;;;4.70;2.12;;;;;;;25.36;41.18;99357.94;4431283;32;32680;-82
2022/06/25 05:42:35;;;;;;;6.68;2.40;;;;;;;25.39;40.91;99355.34;4429094;32;32802;-82
2022/06/25 05:45:35;;;;;;;5.55;2.60;;;;;;;25.52;40.90;99356.47;4441776;32;34506;-82
2022/06/25 05:48:28;;;;;;;4.72;2.37;;;;;;;25.61;41.14;99357.38;4428234;32;34445;-81
2022/06/25 05:51:26;;;;;;;5.30;2.35;;;;;;;25.67;40.71;99361.75;4415128;32;32474;-82
2022/06/25 05:54:17;;;;;;;8.18;2.62;;;;;;;25.80;40.55;99369.31;4424678;32;32878;-82
2022/06/25 05:57:14;;;;;;;6.60;2.45;;;;;;;25.89;40.12;99367.41;4427338;32;33359;-82
2022/06/25 06:00:14;;;;;;;7.22;2.47;;;;;;;25.94;39.75;99377.72;4419911;32;33548;-82
2022/06/25 06:03:04;;;;;;;7.07;2.33;;;;;;;25.98;39.33;99380.72;4426720;32;34119;-81
2022/06/25 06:05:57;;;;;;;6.22;2.42;;;;;;;26.09;39.15;99374.50;4412379;32;32857;-82
2022/06/25 06:08:36;;;;;;;6.10;2.70;;;;;;;26.25;39.00;99377.78;4423193;32;33191;-81
2022/06/25 06:11:04;;;;;;;5.32;2.70;;;;;;;26.09;37.35;99370.88;4422592;32;33828;-82
2022/06/25 06:13:51;;;;;;;6.25;2.67;;;;;;;26.19;38.32;99374.25;4424905;32;32643;-81
2022/06/25 06:16:39;;;;;;;5.45;2.62;;;;;;;26.33;38.34;99381.81;4412039;32;32931;-81
2022/06/25 06:19:35;;;;;;;6.78;2.65;;;;;;;26.07;37.62;99378.78;4427032;32;33748;-86
2022/06/25 06:22:25;;;;;;;8.48;2.80;;;;;;;26.07;37.63;99375.97;4412565;32;33157;-84
2022/06/25 06:25:16;;;;;;;5.60;3.03;;;;;;;26.25;38.68;99384.22;4427008;32;34283;-85
2022/06/25 06:28:14;;;;;;;6.28;3.05;;;;;;;26.34;38.74;99380.69;4435562;32;34114;-87
2022/06/25 06:31:08;;;;;;;8.25;3.53;;;;;;;25.98;40.59;99373.12;4414772;32;32422;-86
2022/06/25 06:34:03;;;;;;;10.10;3.90;;;;;;;26.31;40.29;99370.91;4427854;32;34396;-85
2022/06/25 06:36:51;;;;;;;7.90;4.70;;;;;;;25.84;43.12;99380.78;4423048;32;32670;-85
2022/06/25 06:39:42;;;;;;;8.98;4.35;;;;;;;25.59;45.62;99382.97;4421059;32;31938;-84
2022/06/25 06:42:35;;;;;;;7.97;4.70;;;;;;;26.18;44.40;99391.44;4425118;32;33896;-86
2022/06/25 06:45:31;;;;;;;9.57;4.40;;;;;;;26.09;45.43;99388.56;4428724;32;34796;-86
2022/06/25 06:48:27;;;;;;;9.13;4.95;;;;;;;26.41;44.74;99395.97;4428332;32;32729;-87
2022/06/25 06:51:32;;;;;;;8.35;4.93;;;;;;;26.36;44.91;99403.69;4440641;32;33433;-85
2022/06/25 06:54:15;;;;;;;10.77;5.12;;;;;;;26.41;45.00;99407.22;4430735;32;32519;-85
2022/06/25 06:56:43;;;;;;;9.30;4.65;;;;;;;26.68;44.92;99417.47;4427829;32;34323;-85
2022/06/25 06:59:11;;;;;;;7.53;4.82;;;;;;;26.79;45.20;99423.66;4428180;32;34054;-84
2022/06/25 07:01:43;;;;;;;9.05;4.70;;;;;;;26.77;45.51;99426.78;4416174;32;32271;-86
2022/06/25 07:04:11;;;;;;;7.35;4.93;;;;;;;26.58;46.55;99431.84;4448493;32;33503;-85
2022/06/25 07:06:42;;;;;;;6.35;4.62;;;;;;;26.48;46.90;99435.75;4434207;32;34717;-86
2022/06/25 07:09:13;;;;;;;9.20;4.20;;;;;;;26.40;46.78;99433.69;4433129;32;34120;-85
2022/06/25 07:11:44;;;;;;;5.30;3.90;;;;;;;26.38;47.54;99430.37;4432341;32;34210;-86
2022/06/25 07:14:13;;;;;;;7.12;4.37;;;;;;;26.71;46.17;99430.91;4417363;32;32617;-86
2022/06/25 07:16:41;;;;;;;7.97;4.25;;;;;;;26.64;46.49;99439.00;4443208;32;35272;-85
2022/06/25 07:19:10;;;;;;;8.45;4.45;;;;;;;26.75;46.31;99429.09;4436630;32;33214;-84
2022/06/25 07:21:43;;;;;;;7.53;4.55;;;;;;;26.55;46.75;99438.94;4431984;32;32285;-84
2022/06/25 07:24:41;;;;;;;10.70;4.37;;;;;;;26.55;46.79;99436.13;4437471;32;33662;-83
2022/06/25 07:27:48;;;;;;;8.73;4.12;;;;;;;26.80;46.58;99437.41;4447033;32;35406;-83
2022/06/25 07:30:47;;;;;;;7.85;3.83;;;;;;;26.82;46.45;99429.47;4435245;32;33974;-83
2022/06/25 07:33:42;;;;;;;9.13;3.47;;;;;;;26.98;46.18;99427.09;4435403;32;33516;-83
2022/06/25 07:36:39;;;;;;;7.62;4.57;;;;;;;27.28;45.65;99422.59;4432376;32;33511;-83
2022/06/25 07:39:34;;;;;;;8.52;3.95;;;;;;;26.87;46.57;99426.53;4446182;32;34306;-84
2022/06/25 07:42:28;;;;;;;7.47;3.97;;;;;;;26.69;46.99;99424.75;4446234;32;33420;-84
2022/06/25 07:45:19;;;;;;;8.02;4.07;;;;;;;27.00;47.01;99432.41;4445017;32;31855;-82
2022/06/25 07:48:10;;;;;;;6.37;3.42;;;;;;;27.19;46.29;99442.28;4447825;32;33907;-85
2022/06/25 07:54:07;;;;;;;6.28;3.42;;;;;;;27.55;45.67;99441.25;4437294;32;34135;-84
2022/06/25 07:57:06;;;;;;;8.10;3.90;;;;;;;27.59;45.46;99447.06;4436178;32;33295;-85
2022/06/25 08:00:07;;;;;;;6.28;3.60;;;;;;;27.41;45.42;99458.28;4436638;32;33960;-85
2022/06/25 08:03:01;;;;;;;6.00;3.00;;;;;;;27.55;45.40;99449.69;4431354;32;32542;-85
2022/06/25 08:05:57;;;;;;;7.50;3.12;;;;;;;27.91;44.41;99457.12;4437461;32;32213;-82
2022/06/25 08:08:47;;;;;;;5.97;2.62;;;;;;;27.71;44.81;99458.56;4432317;32;33431;-84
2022/06/25 08:11:41;;;;;;;6.00;2.83;;;;;;;27.68;45.20;99454.41;4419948;32;31986;-81
2022/06/25 08:14:42;;;;;;;8.90;3.28;;;;;;;27.85;44.71;99462.91;4416684;32;32642;-83
2022/06/25 08:17:37;;;;;;;6.60;3.05;;;;;;;27.69;44.92;99472.16;4427540;32;32567;-80
2022/06/25 08:20:33;;;;;;;10.55;3.00;;;;;;;27.86;44.46;99472.22;4414945;32;31931;-78
2022/06/25 08:23:12;;;;;;;6.40;2.80;;;;;;;28.17;43.93;99480.53;4442201;32;34460;-82
2022/06/25 08:25:39;;;;;;;5.55;2.83;;;;;;;28.13;43.66;99485.16;4427573;32;35259;-82
2022/06/25 08:28:10;;;;;;;6.68;3.20;;;;;;;27.68;44.17;99487.41;4427639;32;34580;-82
2022/06/25 08:30:42;;;;;;;6.40;3.05;;;;;;;27.95;43.79;99484.31;4427327;32;32821;-78
2022/06/25 08:33:10;;;;;;;10.05;2.97;;;;;;;28.15;43.20;99483.69;4428020;32;32329;-82
2022/06/25 08:35:38;;;;;;;8.05;2.92;;;;;;;28.09;43.43;99481.34;4414630;32;33404;-82
2022/06/25 08:38:09;;;;;;;9.00;2.80;;;;;;;27.96;43.59;99485.97;4427395;32;32636;-80
2022/06/25 08:40:37;;;;;;;10.50;3.50;;;;;;;27.96;43.59;99483.16;4440558;32;33536;-82
2022/06/25 08:43:13;;;;;;;6.97;3.15;;;;;;;27.76;43.66;99487.44;4440719;32;32315;-83
2022/06/25 08:45:43;;;;;;;6.05;3.00;;;;;;;28.00;42.90;99486.12;4440579;32;34752;-79
2022/06/25 08:48:21;;;;;;;6.80;3.28;;;;;;;27.44;44.51;99487.78;4440299;32;33914;-80
2022/06/25 08:50:50;;;;;;;5.00;3.00;;;;;;;27.69;44.18;99497.53;4452687;32;33293;-80
2022/06/25 08:53:18;;;;;;;6.80;2.90;;;;;;;27.96;43.60;99491.63;4450548;32;33716;-81
2022/06/25 08:55:46;;;;;;;7.25;3.60;;;;;;;27.95;43.24;99481.50;4434505;32;33930;-81
2022/06/25 08:58:15;;;;;;;7.00;3.00;;;;;;;27.73;43.31;99490.91;4438198;32;34795;-83
2022/06/25 09:00:45;;;;;;;9.05;3.28;;;;;;;27.95;43.33;99480.69;4430300;32;33287;-85
2022/06/25 09:03:13;;;;;;;6.35;3.10;;;;;;;28.19;42.76;99487.50;4433515;32;32970;-85
2022/06/25 09:05:43;;;;;;;6.30;3.28;;;;;;;28.36;42.41;99478.25;4445379;32;33409;-88
2022/06/25 09:08:17;;;;;;;7.03;2.92;;;;;;;28.45;42.38;99487.53;4446829;32;36134;-86
2022/06/25 09:10:47;;;;;;;5.65;2.37;;;;;;;28.43;42.61;99478.59;4443744;32;34214;-86
2022/06/25 09:13:17;;;;;;;5.40;2.65;;;;;;;28.50;42.35;99481.72;4432066;32;33977;-85
2022/06/25 09:15:47;;;;;;;5.47;2.75;;;;;;;28.80;41.97;99488.31;4443061;32;34007;-86
2022/06/25 09:21:07;;;;;;;7.57;2.75;;;;;;;29.03;41.24;99490.97;4439172;32;32351;-89
2022/06/25 09:23:55;;;;;;;6.65;3.08;;;;;;;28.99;41.10;99490.81;4436603;32;33668;-85
2022/06/25 09:26:23;;;;;;;6.45;3.42;;;;;;;29.47;41.23;99490.50;4440421;32;35322;-85
2022/06/25 09:28:51;;;;;;;9.02;3.42;;;;;;;29.80;38.82;99493.50;4442174;32;33447;-86
2022/06/25 09:31:35;;;;;;;7.82;3.25;;;;;;;30.00;38.43;99491.88;4429337;32;32415;-82
2022/06/25 09:34:05;;;;;;;5.55;3.00;;;;;;;29.94;38.28;99486.75;4438040;32;33896;-83
2022/06/25 09:36:36;;;;;;;4.87;3.00;;;;;;;30.00;39.05;99499.56;4446672;32;34479;-84
2022/06/25 09:39:04;;;;;;;8.57;4.22;;;;;;;29.66;38.42;99494.91;4444134;32;34488;-82
2022/06/25 09:41:53;;;;;;;7.10;3.40;;;;;;;30.03;38.06;99501.69;4442997;32;33086;-82
2022/06/25 09:44:22;;;;;;;20.23;8.68;;;;;;;29.86;38.02;99496.13;4427085;32;32404;-82
2022/06/25 09:46:57;;;;;;;8.70;3.75;;;;;;;29.94;37.51;99490.41;4427225;32;34937;-82
2022/06/25 09:49:26;;;;;;;17.10;7.57;;;;;;;30.25;37.21;99492.88;4429289;32;34589;-78
2022/06/25 09:52:01;;;;;;;7.75;2.53;;;;;;;30.55;36.73;99492.81;4429026;32;33463;-77
2022/06/25 09:54:31;;;;;;;9.23;3.30;;;;;;;30.61;36.27;99494.28;4441641;32;33693;-77
2022/06/25 09:56:59;;;;;;;22.17;6.85;;;;;;;30.90;36.11;99493.34;4429124;32;33005;-78
2022/06/25 09:59:30;;;;;;;8.05;3.55;;;;;;;31.03;35.94;99490.19;4428999;32;33912;-84
2022/06/25 10:02:02;;;;;;;6.45;2.22;;;;;;;31.10;35.56;99493.28;4428992;32;31791;-84
2022/06/25 10:04:31;;;;;;;5.18;2.60;;;;;;;30.95;35.44;99491.09;4455801;32;34822;-84
2022/06/25 10:07:07;;;;;;;10.48;5.57;;;;;;;31.26;35.59;99482.09;4429540;32;34285;-84
2022/06/25 10:09:39;;;;;;;8.77;5.15;;;;;;;31.50;35.43;99491.81;4428953;32;32449;-83
2022/06/25 10:12:11;;;;;;;9.05;4.47;;;;;;;31.36;36.02;99497.84;4441661;32;33494;-83
2022/06/25 10:14:39;;;;;;;4.80;2.78;;;;;;;31.47;34.59;99481.19;4428744;32;32209;-84
2022/06/25 10:17:06;;;;;;;5.97;3.03;;;;;;;31.09;34.71;99483.13;4429101;32;33787;-84
2022/06/25 10:19:34;;;;;;;8.95;3.40;;;;;;;31.20;34.74;99477.03;4442287;32;33883;-82
2022/06/25 10:22:03;;;;;;;5.97;2.70;;;;;;;31.66;35.52;99473.75;4429586;32;32505;-82
2022/06/25 10:24:30;;;;;;;5.10;2.35;;;;;;;31.85;34.48;99470.31;4442334;32;33805;-83
2022/06/25 10:26:58;;;;;;;4.70;2.35;;;;;;;32.20;34.01;99464.94;4430951;32;35180;-83
2022/06/25 10:29:28;;;;;;;6.25;2.67;;;;;;;31.97;33.03;99466.63;4443612;32;34205;-83
2022/06/25 10:32:16;;;;;;;4.82;2.20;;;;;;;32.35;32.81;99461.38;4441515;32;34208;-84
2022/06/25 10:34:58;;;;;;;6.28;2.85;;;;;;;32.30;32.50;99463.66;4428852;32;33681;-83
2022/06/25 10:37:26;;;;;;;4.75;2.22;;;;;;;32.22;33.07;99459.75;4428824;32;34504;-83
2022/06/25 10:39:55;;;;;;;7.47;2.05;;;;;;;32.16;32.39;99471.69;4415523;32;32443;-82
2022/06/25 10:45:15;;;;;;;4.07;1.95;;;;;;;32.11;32.59;99452.91;4445859;32;33115;-85
2022/06/25 10:47:57;;;;;;;6.07;2.45;;;;;;;32.16;32.55;99448.97;4456830;32;34417;-84
2022/06/25 10:50:25;;;;;;;4.62;1.98;;;;;;;32.67;32.04;99445.25;4443988;32;32585;-84
2022/06/25 10:53:02;;;;;;;5.00;2.30;;;;;;;32.58;31.22;99440.91;4456733;32;32890;-85
2022/06/25 10:55:30;;;;;;;7.25;2.20;;;;;;;32.92;32.46;99442.31;4444276;32;32482;-84
2022/06/25 10:58:14;;;;;;;5.22;2.45;;;;;;;32.99;31.46;99434.00;4444241;32;35302;-82
2022/06/25 11:00:47;;;;;;;4.68;2.20;;;;;;;33.23;30.76;99439.50;4444047;32;34935;-81
2022/06/25 11:03:17;;;;;;;5.75;2.58;;;;;;;32.68;30.83;99440.41;4440717;32;32531;-84
2022/06/25 11:05:45;;;;;;;15.95;2.97;;;;;;;33.22;31.17;99428.47;4428994;32;34008;-81
2022/06/25 11:08:13;;;;;;;6.40;2.83;;;;;;;33.32;31.42;99433.66;4427892;32;33961;-81
2022/06/25 11:10:41;;;;;;;14.30;2.67;;;;;;;33.48;31.41;99428.78;4428015;32;33941;-80
2022/06/25 11:13:09;;;;;;;6.78;1.95;;;;;;;33.69;30.32;99426.47;4428458;32;33302;-82
2022/06/25 11:15:44;;;;;;;3.62;2.00;;;;;;;33.16;30.71;99438.47;4428956;32;34256;-81
2022/06/25 11:18:13;;;;;;;6.07;2.08;;;;;;;32.81;30.94;99444.87;4428234;32;33044;-80
2022/06/25 11:20:42;;;;;;;19.40;3.37;;;;;;;32.50;31.25;99437.03;4454886;32;34022;-79
2022/06/25 11:23:11;;;;;;;6.15;2.08;;;;;;;33.33;31.06;99429.63;4428880;32;34052;-81
2022/06/25 11:28:48;;;;;;;5.82;2.10;;;;;;;33.86;30.06;99428.09;4443431;32;34655;-81
2022/06/25 11:31:23;;;;;;;5.65;1.75;;;;;;;33.97;30.45;99431.19;4429497;32;34911;-82
2022/06/25 11:33:54;;;;;;;3.50;1.67;;;;;;;33.77;29.25;99438.03;4428378;32;34372;-82
2022/06/25 11:36:22;;;;;;;2.95;1.40;;;;;;;33.25;29.22;99430.59;4428047;32;32324;-80
2022/06/25 11:38:54;;;;;;;5.05;2.00;;;;;;;32.88;29.85;99430.03;4428353;32;34435;-81
2022/06/25 11:41:22;;;;;;;4.87;1.35;;;;;;;33.13;32.28;99427.88;4440571;32;34047;-81
2022/06/25 11:43:50;;;;;;;4.10;1.62;;;;;;;33.31;29.92;99430.00;4441194;32;33539;-81
2022/06/25 11:46:19;;;;;;;4.90;1.52;;;;;;;32.97;29.61;99437.19;4428076;32;33668;-77
2022/06/25 11:48:47;;;;;;;2.83;1.40;;;;;;;32.85;29.85;99434.44;4441337;32;34677;-77
2022/06/25 11:51:24;;;;;;;5.50;1.70;;;;;;;33.11;29.54;99428.22;4440897;32;33937;-81
2022/06/25 11:53:57;;;;;;;4.53;1.30;;;;;;;32.97;30.19;99425.00;4440866;32;34265;-80
2022/06/25 11:56:27;;;;;;;2.83;1.40;;;;;;;33.44;29.71;99413.66;4444017;32;33444;-81
2022/06/25 11:59:14;;;;;;;4.68;1.58;;;;;;;33.20;29.48;99416.66;4425273;32;34753;-80
2022/06/25 12:02:12;;;;;;;4.68;1.50;;;;;;;33.63;29.03;99418.59;4432887;32;34352;-81
2022/06/25 12:05:06;;;;;;;4.93;1.30;;;;;;;33.53;28.61;99410.62;4424601;32;31883;-82
2022/06/25 12:07:58;;;;;;;3.65;1.52;;;;;;;33.39;28.77;99411.09;4425958;32;33734;-81
2022/06/25 12:10:47;;;;;;;3.20;1.37;;;;;;;33.17;28.52;99414.53;4440529;32;34478;-81
2022/06/25 12:13:38;;;;;;;4.40;1.48;;;;;;;33.22;29.09;99406.56;4427550;32;33900;-81
2022/06/25 12:16:46;;;;;;;3.97;1.37;;;;;;;33.34;29.10;99399.97;4442104;32;33511;-82
2022/06/25 12:19:49;;;;;;;4.60;1.37;;;;;;;33.30;29.25;99401.91;4443343;32;33691;-80
2022/06/25 12:22:41;;;;;;;2.97;1.37;;;;;;;33.04;29.97;99399.59;4457336;32;35021;-82
2022/06/25 12:25:44;;;;;;;2.65;1.48;;;;;;;32.96;30.67;99404.28;4443736;32;33738;-80
2022/06/25 12:28:46;;;;;;;3.25;1.30;;;;;;;33.00;30.71;99381.63;4456008;32;34351;-81
2022/06/25 12:31:34;;;;;;;3.67;1.10;;;;;;;33.34;30.28;99377.22;4443780;32;32291;-80
2022/06/25 12:34:25;;;;;;;3.37;1.33;;;;;;;33.00;30.50;99387.31;4443681;32;34661;-81
2022/06/25 12:37:28;;;;;;;3.17;1.23;;;;;;;33.08;30.86;99379.78;4457317;32;34752;-81
2022/06/25 12:40:18;;;;;;;2.67;1.15;;;;;;;32.89;30.16;99384.19;4456348;32;33483;-80
2022/06/25 12:43:25;;;;;;;3.30;1.10;;;;;;;32.48;30.58;99371.25;4456628;32;34463;-81